sensor_id;sensor_type;location;lat;lon;timestamp;pressure;altitude;pressure_sealevel;temperature;humidity
11001;BME280;5553;48.506;8.870;2022-08-19T00:01:22;96147.47;;;18.38;100.00
11001;BME280;5553;48.506;8.870;2022-08-19T00:03:51;96153.31;;;18.35;100.00
11001;BME280;5553;48.506;8.870;2022-08-19T00:06:19;96153.38;;;18.40;100.00
11001;BME280;5553;48.506;8.870;2022-08-19T00:08:50;96154.69;;;18.37;100.00
11001;BME280;5553;48.506;8.870;2022-08-19T00:11:19;96154.41;;;18.39;100.00
11001;BME280;5553;48.506;8.870;2022-08-19T00:13:47;96155.13;;;18.29;100.00
11001;BME280;5553;48.506;8.870;2022-08-19T00:16:17;96160.66;;;18.22;100.00
11001;BME280;5553;48.506;8.870;2022-08-19T00:18:46;96169.88;;;18.15;100.00
11001;BME280;5553;48.506;8.870;2022-08-19T00:21:14;96185.47;;;17.84;100.00
11001;BME280;5553;48.506;8.870;2022-08-19T00:23:43;96184.34;;;17.80;100.00
11001;BME280;5553;48.506;8.870;2022-08-19T00:26:14;96202.59;;;17.71;100.00
11001;BME280;5553;48.506;8.870;2022-08-19T00:28:43;96220.38;;;17.66;100.00
11001;BME280;5553;48.506;8.870;2022-08-19T00:31:11;96221.34;;;17.60;100.00
11001;BME280;5553;48.506;8.870;2022-08-19T00:33:41;96236.22;;;17.56;100.00
11001;BME280;5553;48.506;8.870;2022-08-19T00:36:10;96251.56;;;17.48;100.00
11001;BME280;5553;48.506;8.870;2022-08-19T00:38:39;96264.91;;;17.48;100.00
11001;BME280;5553;48.506;8.870;2022-08-19T00:41:11;96295.59;;;17.34;100.00
11001;BME280;5553;48.506;8.870;2022-08-19T00:43:43;96311.47;;;17.29;100.00
11001;BME280;5553;48.506;8.870;2022-08-19T00:46:11;96329.72;;;17.20;100.00
11001;BME280;5553;48.506;8.870;2022-08-19T00:48:39;96345.94;;;17.19;100.00
11001;BME280;5553;48.506;8.870;2022-08-19T00:51:08;96351.50;;;17.17;100.00
11001;BME280;5553;48.506;8.870;2022-08-19T00:53:36;96360.91;;;17.20;100.00
11001;BME280;5553;48.506;8.870;2022-08-19T00:56:05;96369.13;;;17.18;100.00
11001;BME280;5553;48.506;8.870;2022-08-19T00:58:35;96368.19;;;17.13;100.00
11001;BME280;5553;48.506;8.870;2022-08-19T01:01:06;96354.41;;;17.16;100.00
11001;BME280;5553;48.506;8.870;2022-08-19T01:03:34;96341.78;;;17.11;100.00
11001;BME280;5553;48.506;8.870;2022-08-19T01:06:02;96324.75;;;17.12;100.00
11001;BME280;5553;48.506;8.870;2022-08-19T01:08:31;96315.63;;;17.08;100.00
11001;BME280;5553;48.506;8.870;2022-08-19T01:10:59;96313.66;;;17.03;100.00
11001;BME280;5553;48.506;8.870;2022-08-19T01:13:30;96314.69;;;17.02;100.00
11001;BME280;5553;48.506;8.870;2022-08-19T01:16:01;96338.34;;;16.99;100.00
11001;BME280;5553;48.506;8.870;2022-08-19T01:18:38;96347.16;;;16.99;100.00
11001;BME280;5553;48.506;8.870;2022-08-19T01:21:10;96344.50;;;16.99;100.00
11001;BME280;5553;48.506;8.870;2022-08-19T01:23:44;96319.69;;;16.99;100.00
11001;BME280;5553;48.506;8.870;2022-08-19T01:26:16;96322.84;;;16.96;100.00
11001;BME280;5553;48.506;8.870;2022-08-19T01:28:46;96338.50;;;16.92;100.00
11001;BME280;5553;48.506;8.870;2022-08-19T01:31:18;96327.34;;;16.95;100.00
11001;BME280;5553;48.506;8.870;2022-08-19T01:33:47;96324.94;;;16.94;100.00
11001;BME280;5553;48.506;8.870;2022-08-19T01:36:22;96337.53;;;16.98;100.00
11001;BME280;5553;48.506;8.870;2022-08-19T01:38:55;96360.28;;;16.89;100.00
11001;BME280;5553;48.506;8.870;2022-08-19T01:41:24;96367.81;;;16.80;100.00
11001;BME280;5553;48.506;8.870;2022-08-19T01:43:53;96359.22;;;16.78;100.00
11001;BME280;5553;48.506;8.870;2022-08-19T01:46:21;96350.56;;;16.83;100.00
11001;BME280;5553;48.506;8.870;2022-08-19T01:48:50;96329.59;;;16.87;100.00
11001;BME280;5553;48.506;8.870;2022-08-19T01:51:18;96324.97;;;16.82;100.00
11001;BME280;5553;48.506;8.870;2022-08-19T01:53:47;96321.47;;;16.81;100.00
11001;BME280;5553;48.506;8.870;2022-08-19T01:56:18;96323.25;;;16.76;100.00
11001;BME280;5553;48.506;8.870;2022-08-19T01:58:50;96334.31;;;16.73;100.00
11001;BME280;5553;48.506;8.870;2022-08-19T02:01:20;96344.97;;;16.73;100.00
11001;BME280;5553;48.506;8.870;2022-08-19T02:03:48;96359.34;;;16.72;100.00
11001;BME280;5553;48.506;8.870;2022-08-19T02:06:19;96356.31;;;16.68;100.00
11001;BME280;5553;48.506;8.870;2022-08-19T02:08:47;96368.38;;;16.71;100.00
11001;BME280;5553;48.506;8.870;2022-08-19T02:11:23;96362.34;;;16.64;100.00
11001;BME280;5553;48.506;8.870;2022-08-19T02:13:52;96384.72;;;16.63;100.00
11001;BME280;5553;48.506;8.870;2022-08-19T02:16:21;96378.59;;;16.62;100.00
11001;BME280;5553;48.506;8.870;2022-08-19T02:18:50;96385.53;;;16.63;100.00
11001;BME280;5553;48.506;8.870;2022-08-19T02:21:19;96388.28;;;16.68;100.00
11001;BME280;5553;48.506;8.870;2022-08-19T02:23:50;96403.09;;;16.64;100.00
11001;BME280;5553;48.506;8.870;2022-08-19T02:26:21;96421.41;;;16.61;100.00
11001;BME280;5553;48.506;8.870;2022-08-19T02:28:52;96441.09;;;16.59;100.00
11001;BME280;5553;48.506;8.870;2022-08-19T02:31:23;96424.53;;;16.57;100.00
11001;BME280;5553;48.506;8.870;2022-08-19T02:33:53;96411.81;;;16.59;100.00
11001;BME280;5553;48.506;8.870;2022-08-19T02:36:22;96410.88;;;16.66;100.00
11001;BME280;5553;48.506;8.870;2022-08-19T02:38:51;96419.34;;;16.63;100.00
11001;BME280;5553;48.506;8.870;2022-08-19T02:41:18;96415.97;;;16.55;100.00
11001;BME280;5553;48.506;8.870;2022-08-19T02:43:50;96416.66;;;16.51;100.00
11001;BME280;5553;48.506;8.870;2022-08-19T02:46:20;96399.88;;;16.50;100.00
11001;BME280;5553;48.506;8.870;2022-08-19T02:48:50;96396.75;;;16.53;100.00
11001;BME280;5553;48.506;8.870;2022-08-19T02:51:20;96381.34;;;16.55;100.00
11001;BME280;5553;48.506;8.870;2022-08-19T02:53:49;96373.59;;;16.54;100.00
11001;BME280;5553;48.506;8.870;2022-08-19T02:56:18;96355.53;;;16.56;100.00
11001;BME280;5553;48.506;8.870;2022-08-19T02:58:46;96349.41;;;16.55;100.00
11001;BME280;5553;48.506;8.870;2022-08-19T03:01:23;96340.03;;;16.53;100.00
11001;BME280;5553;48.506;8.870;2022-08-19T03:03:52;96333.88;;;16.52;100.00
11001;BME280;5553;48.506;8.870;2022-08-19T03:06:21;96331.09;;;16.47;100.00
11001;BME280;5553;48.506;8.870;2022-08-19T03:08:50;96338.53;;;16.45;100.00
11001;BME280;5553;48.506;8.870;2022-08-19T03:11:21;96343.06;;;16.45;100.00
11001;BME280;5553;48.506;8.870;2022-08-19T03:13:50;96351.25;;;16.43;100.00
11001;BME280;5553;48.506;8.870;2022-08-19T03:16:23;96359.94;;;16.39;100.00
11001;BME280;5553;48.506;8.870;2022-08-19T03:18:52;96375.09;;;16.38;100.00
11001;BME280;5553;48.506;8.870;2022-08-19T03:21:24;96377.78;;;16.38;100.00
11001;BME280;5553;48.506;8.870;2022-08-19T03:23:54;96375.56;;;16.35;100.00
11001;BME280;5553;48.506;8.870;2022-08-19T03:26:22;96398.72;;;16.34;100.00
11001;BME280;5553;48.506;8.870;2022-08-19T03:28:50;96398.38;;;16.31;100.00
11001;BME280;5553;48.506;8.870;2022-08-19T03:31:22;96390.50;;;16.36;100.00
11001;BME280;5553;48.506;8.870;2022-08-19T03:33:51;96384.13;;;16.37;100.00
11001;BME280;5553;48.506;8.870;2022-08-19T03:36:21;96374.75;;;16.34;100.00
11001;BME280;5553;48.506;8.870;2022-08-19T03:38:53;96370.25;;;16.35;100.00
11001;BME280;5553;48.506;8.870;2022-08-19T03:41:23;96369.44;;;16.34;100.00
11001;BME280;5553;48.506;8.870;2022-08-19T03:43:53;96355.41;;;16.39;100.00
11001;BME280;5553;48.506;8.870;2022-08-19T03:46:26;96352.63;;;16.34;100.00
11001;BME280;5553;48.506;8.870;2022-08-19T03:48:57;96357.41;;;16.32;100.00
11001;BME280;5553;48.506;8.870;2022-08-19T03:51:27;96362.72;;;16.32;100.00
11001;BME280;5553;48.506;8.870;2022-08-19T03:53:57;96371.84;;;16.36;100.00
11001;BME280;5553;48.506;8.870;2022-08-19T03:56:27;96369.78;;;16.38;100.00
11001;BME280;5553;48.506;8.870;2022-08-19T03:58:56;96362.81;;;16.37;100.00
11001;BME280;5553;48.506;8.870;2022-08-19T04:01:28;96365.47;;;16.37;100.00
11001;BME280;5553;48.506;8.870;2022-08-19T04:03:58;96360.41;;;16.35;100.00
11001;BME280;5553;48.506;8.870;2022-08-19T04:06:28;96355.06;;;16.35;100.00
11001;BME280;5553;48.506;8.870;2022-08-19T04:08:59;96357.75;;;16.35;100.00
11001;BME280;5553;48.506;8.870;2022-08-19T04:11:29;96364.47;;;16.38;100.00
11001;BME280;5553;48.506;8.870;2022-08-19T04:13:59;96361.81;;;16.38;100.00
11001;BME280;5553;48.506;8.870;2022-08-19T04:16:30;96358.69;;;16.41;100.00
11001;BME280;5553;48.506;8.870;2022-08-19T04:19:00;96357.50;;;16.37;100.00
11001;BME280;5553;48.506;8.870;2022-08-19T04:21:28;96357.03;;;16.40;100.00
11001;BME280;5553;48.506;8.870;2022-08-19T04:23:57;96361.81;;;16.38;100.00
11001;BME280;5553;48.506;8.870;2022-08-19T04:26:27;96365.28;;;16.39;100.00
11001;BME280;5553;48.506;8.870;2022-08-19T04:28:57;96355.41;;;16.39;100.00
11001;BME280;5553;48.506;8.870;2022-08-19T04:31:31;96358.78;;;16.34;100.00
11001;BME280;5553;48.506;8.870;2022-08-19T04:34:02;96359.59;;;16.35;100.00
11001;BME280;5553;48.506;8.870;2022-08-19T04:36:33;96355.88;;;16.36;100.00
11001;BME280;5553;48.506;8.870;2022-08-19T04:39:05;96358.09;;;16.39;100.00
11001;BME280;5553;48.506;8.870;2022-08-19T04:41:33;96362.25;;;16.35;100.00
11001;BME280;5553;48.506;8.870;2022-08-19T04:44:13;96375.09;;;16.38;100.00
11001;BME280;5553;48.506;8.870;2022-08-19T04:46:46;96374.31;;;16.38;100.00
11001;BME280;5553;48.506;8.870;2022-08-19T04:49:16;96377.78;;;16.38;100.00
11001;BME280;5553;48.506;8.870;2022-08-19T04:51:46;96372.44;;;16.38;100.00
11001;BME280;5553;48.506;8.870;2022-08-19T04:54:15;96386.78;;;16.37;100.00
11001;BME280;5553;48.506;8.870;2022-08-19T04:56:45;96403.09;;;16.41;100.00
11001;BME280;5553;48.506;8.870;2022-08-19T04:59:15;96400.78;;;16.44;100.00
11001;BME280;5553;48.506;8.870;2022-08-19T05:01:47;96397.09;;;16.45;100.00
11001;BME280;5553;48.506;8.870;2022-08-19T05:04:17;96394.19;;;16.47;100.00
11001;BME280;5553;48.506;8.870;2022-08-19T05:06:47;96399.88;;;16.50;100.00
11001;BME280;5553;48.506;8.870;2022-08-19T05:09:17;96400.47;;;16.52;100.00
11001;BME280;5553;48.506;8.870;2022-08-19T05:11:47;96395.69;;;16.54;100.00
11001;BME280;5553;48.506;8.870;2022-08-19T05:14:18;96398.94;;;16.56;100.00
11001;BME280;5553;48.506;8.870;2022-08-19T05:16:49;96399.53;;;16.58;100.00
11001;BME280;5553;48.506;8.870;2022-08-19T05:19:17;96413.41;;;16.61;100.00
11001;BME280;5553;48.506;8.870;2022-08-19T05:21:59;96408.91;;;16.61;100.00
11001;BME280;5553;48.506;8.870;2022-08-19T05:24:40;96406.00;;;16.63;100.00
11001;BME280;5553;48.506;8.870;2022-08-19T05:27:08;96411.34;;;16.63;100.00
11001;BME280;5553;48.506;8.870;2022-08-19T05:29:37;96410.88;;;16.66;100.00
11001;BME280;5553;48.506;8.870;2022-08-19T05:32:07;96407.75;;;16.69;100.00
11001;BME280;5553;48.506;8.870;2022-08-19T05:34:36;96399.19;;;16.67;100.00
11001;BME280;5553;48.506;8.870;2022-08-19T05:37:06;96410.97;;;16.71;100.00
11001;BME280;5553;48.506;8.870;2022-08-19T05:39:36;96421.88;;;16.69;100.00
11001;BME280;5553;48.506;8.870;2022-08-19T05:42:07;96426.41;;;16.69;100.00
11001;BME280;5553;48.506;8.870;2022-08-19T05:44:39;96426.97;;;16.71;100.00
11001;BME280;5553;48.506;8.870;2022-08-19T05:47:13;96432.66;;;16.74;100.00
11001;BME280;5553;48.506;8.870;2022-08-19T05:49:42;96429.78;;;16.76;100.00
11001;BME280;5553;48.506;8.870;2022-08-19T05:52:13;96426.06;;;16.77;100.00
11001;BME280;5553;48.506;8.870;2022-08-19T05:54:43;96425.03;;;16.78;100.00
11001;BME280;5553;48.506;8.870;2022-08-19T05:57:13;96424.00;;;16.79;100.00
11001;BME280;5553;48.506;8.870;2022-08-19T05:59:42;96429.88;;;16.81;100.00
11001;BME280;5553;48.506;8.870;2022-08-19T06:02:13;96435.81;;;16.83;100.00
11001;BME280;5553;48.506;8.870;2022-08-19T06:04:42;96428.38;;;16.85;100.00
11001;BME280;5553;48.506;8.870;2022-08-19T06:07:10;96429.56;;;16.89;100.00
11001;BME280;5553;48.506;8.870;2022-08-19T06:09:39;96415.41;;;16.89;100.00
11001;BME280;5553;48.506;8.870;2022-08-19T06:12:07;96407.41;;;16.89;100.00
11001;BME280;5553;48.506;8.870;2022-08-19T06:14:36;96402.91;;;16.89;100.00
11001;BME280;5553;48.506;8.870;2022-08-19T06:17:05;96398.94;;;16.92;100.00
11001;BME280;5553;48.506;8.870;2022-08-19T06:19:36;96387.72;;;16.90;100.00
11001;BME280;5553;48.506;8.870;2022-08-19T06:22:06;96385.63;;;16.92;100.00
11001;BME280;5553;48.506;8.870;2022-08-19T06:24:38;96376.59;;;16.93;100.00
11001;BME280;5553;48.506;8.870;2022-08-19T06:27:06;96377.97;;;16.95;100.00
11001;BME280;5553;48.506;8.870;2022-08-19T06:29:34;96363.50;;;16.91;100.00
11001;BME280;5553;48.506;8.870;2022-08-19T06:32:03;96365.69;;;16.94;100.00
11001;BME280;5553;48.506;8.870;2022-08-19T06:34:33;96361.75;;;16.97;100.00
11001;BME280;5553;48.506;8.870;2022-08-19T06:37:04;96365.47;;;16.96;100.00
11001;BME280;5553;48.506;8.870;2022-08-19T06:39:38;96355.16;;;16.99;100.00
11001;BME280;5553;48.506;8.870;2022-08-19T06:42:07;96366.38;;;17.01;100.00
11001;BME280;5553;48.506;8.870;2022-08-19T06:44:38;96356.31;;;17.03;100.00
11001;BME280;5553;48.506;8.870;2022-08-19T06:47:08;96348.66;;;17.07;100.00
11001;BME280;5553;48.506;8.870;2022-08-19T06:49:37;96347.94;;;17.12;100.00
11001;BME280;5553;48.506;8.870;2022-08-19T06:52:09;96339.72;;;17.13;100.00
11001;BME280;5553;48.506;8.870;2022-08-19T06:54:40;96348.03;;;17.17;100.00
11001;BME280;5553;48.506;8.870;2022-08-19T06:57:08;96344.91;;;17.20;100.00
11001;BME280;5553;48.506;8.870;2022-08-19T06:59:40;96340.38;;;17.20;100.00
11001;BME280;5553;48.506;8.870;2022-08-19T07:02:08;96337.47;;;17.22;100.00
11001;BME280;5553;48.506;8.870;2022-08-19T07:04:37;96340.72;;;17.24;100.00
11001;BME280;5553;48.506;8.870;2022-08-19T07:07:10;96342.31;;;17.25;100.00
11001;BME280;5553;48.506;8.870;2022-08-19T07:09:42;96332.94;;;17.22;100.00
11001;BME280;5553;48.506;8.870;2022-08-19T07:12:12;96332.94;;;17.22;100.00
11001;BME280;5553;48.506;8.870;2022-08-19T07:14:41;96335.84;;;17.21;100.00
11001;BME280;5553;48.506;8.870;2022-08-19T07:17:12;96339.06;;;17.23;100.00
11001;BME280;5553;48.506;8.870;2022-08-19T07:19:41;96341.19;;;17.21;100.00
11001;BME280;5553;48.506;8.870;2022-08-19T07:22:12;96339.56;;;17.20;100.00
11001;BME280;5553;48.506;8.870;2022-08-19T07:24:40;96343.94;;;17.26;100.00
11001;BME280;5553;48.506;8.870;2022-08-19T07:27:08;96343.47;;;17.29;100.00
11001;BME280;5553;48.506;8.870;2022-08-19T07:29:37;96336.06;;;17.31;100.00
11001;BME280;5553;48.506;8.870;2022-08-19T07:32:06;96332.91;;;17.34;100.00
11001;BME280;5553;48.506;8.870;2022-08-19T07:34:36;96323.38;;;17.38;100.00
11001;BME280;5553;48.506;8.870;2022-08-19T07:37:05;96320.25;;;17.41;100.00
11001;BME280;5553;48.506;8.870;2022-08-19T07:39:37;96321.84;;;17.42;100.00
11001;BME280;5553;48.506;8.870;2022-08-19T07:42:08;96324.53;;;17.42;100.00
11001;BME280;5553;48.506;8.870;2022-08-19T07:44:37;96325.91;;;17.45;100.00
11001;BME280;5553;48.506;8.870;2022-08-19T07:47:06;96319.78;;;17.44;100.00
11001;BME280;5553;48.506;8.870;2022-08-19T07:49:34;96318.25;;;17.48;100.00
11001;BME280;5553;48.506;8.870;2022-08-19T07:52:06;96316.22;;;17.56;100.00
11001;BME280;5553;48.506;8.870;2022-08-19T07:54:38;96316.81;;;17.58;100.00
11001;BME280;5553;48.506;8.870;2022-08-19T07:57:07;96310.75;;;17.62;100.00
11001;BME280;5553;48.506;8.870;2022-08-19T07:59:35;96312.53;;;17.73;100.00
11001;BME280;5553;48.506;8.870;2022-08-19T08:02:04;96311.91;;;17.83;100.00
11001;BME280;5553;48.506;8.870;2022-08-19T08:04:33;96310.47;;;17.92;100.00
11001;BME280;5553;48.506;8.870;2022-08-19T08:07:14;96311.75;;;18.07;100.00
11001;BME280;5553;48.506;8.870;2022-08-19T08:09:58;96308.19;;;18.18;100.00
11001;BME280;5553;48.506;8.870;2022-08-19T08:12:29;96306.72;;;18.27;100.00
11001;BME280;5553;48.506;8.870;2022-08-19T08:15:01;96293.09;;;18.45;100.00
11001;BME280;5553;48.506;8.870;2022-08-19T08:17:32;96287.25;;;18.48;100.00
11001;BME280;5553;48.506;8.870;2022-08-19T08:20:03;96285.09;;;18.45;100.00
11001;BME280;5553;48.506;8.870;2022-08-19T08:22:32;96277.53;;;18.59;100.00
11001;BME280;5553;48.506;8.870;2022-08-19T08:25:17;96289.03;;;18.60;100.00
11001;BME280;5553;48.506;8.870;2022-08-19T08:27:46;96276.31;;;18.67;100.00
11001;BME280;5553;48.506;8.870;2022-08-19T08:30:17;96276.69;;;18.76;100.00
11001;BME280;5553;48.506;8.870;2022-08-19T08:32:46;96268.13;;;18.74;100.00
11001;BME280;5553;48.506;8.870;2022-08-19T08:35:16;96267.69;;;18.82;100.00
11001;BME280;5553;48.506;8.870;2022-08-19T08:37:47;96260.16;;;18.79;100.00
11001;BME280;5553;48.506;8.870;2022-08-19T08:40:21;96269.06;;;18.84;100.00
11001;BME280;5553;48.506;8.870;2022-08-19T08:42:55;96282.66;;;18.83;100.00
11001;BME280;5553;48.506;8.870;2022-08-19T08:45:26;96269.69;;;18.91;100.00
11001;BME280;5553;48.506;8.870;2022-08-19T08:48:00;96275.03;;;18.91;100.00
11001;BME280;5553;48.506;8.870;2022-08-19T08:50:32;96278.53;;;18.97;100.00
11001;BME280;5553;48.506;8.870;2022-08-19T08:53:03;96279.91;;;19.00;100.00
11001;BME280;5553;48.506;8.870;2022-08-19T08:55:36;96296.94;;;18.93;100.00
11001;BME280;5553;48.506;8.870;2022-08-19T08:58:10;96281.16;;;18.92;100.00
11001;BME280;5553;48.506;8.870;2022-08-19T09:00:44;96285.22;;;18.94;100.00
11001;BME280;5553;48.506;8.870;2022-08-19T09:03:17;96278.19;;;18.88;100.00
11001;BME280;5553;48.506;8.870;2022-08-19T09:05:56;96276.81;;;18.86;100.00
11001;BME280;5553;48.506;8.870;2022-08-19T09:08:36;96279.94;;;18.78;100.00
11001;BME280;5553;48.506;8.870;2022-08-19T09:11:13;96279.44;;;18.81;100.00
11001;BME280;5553;48.506;8.870;2022-08-19T09:13:49;96270.09;;;18.83;100.00
11001;BME280;5553;48.506;8.870;2022-08-19T09:16:22;96273.59;;;18.84;100.00
11001;BME280;5553;48.506;8.870;2022-08-19T09:18:55;96274.91;;;18.81;100.00
11001;BME280;5553;48.506;8.870;2022-08-19T09:21:24;96274.41;;;18.84;100.00
11001;BME280;5553;48.506;8.870;2022-08-19T09:23:53;96273.91;;;18.87;100.00
11001;BME280;5553;48.506;8.870;2022-08-19T09:26:25;96275.53;;;18.88;100.00
11001;BME280;5553;48.506;8.870;2022-08-19T09:28:54;96264.81;;;18.88;100.00
11001;BME280;5553;48.506;8.870;2022-08-19T09:31:25;96268.75;;;18.81;100.00
11001;BME280;5553;48.506;8.870;2022-08-19T09:33:55;96274.59;;;18.78;100.00
11001;BME280;5553;48.506;8.870;2022-08-19T09:36:26;96269.56;;;18.81;100.00
11001;BME280;5553;48.506;8.870;2022-08-19T09:38:58;96286.69;;;18.85;100.00
11001;BME280;5553;48.506;8.870;2022-08-19T09:41:29;96278.19;;;18.88;100.00
11001;BME280;5553;48.506;8.870;2022-08-19T09:43:58;96286.69;;;18.85;100.00
11001;BME280;5553;48.506;8.870;2022-08-19T09:46:28;96285.31;;;18.83;100.00
11001;BME280;5553;48.506;8.870;2022-08-19T09:48:58;96292.66;;;18.92;100.00
11001;BME280;5553;48.506;8.870;2022-08-19T09:51:29;96291.06;;;18.91;100.00
11001;BME280;5553;48.506;8.870;2022-08-19T09:53:59;96295.03;;;18.89;100.00
11001;BME280;5553;48.506;8.870;2022-08-19T09:56:31;96293.16;;;18.89;100.00
11001;BME280;5553;48.506;8.870;2022-08-19T09:59:01;96297.38;;;18.85;100.00
11001;BME280;5553;48.506;8.870;2022-08-19T10:01:31;96294.22;;;18.88;100.00
11001;BME280;5553;48.506;8.870;2022-08-19T10:04:00;96295.28;;;18.87;100.00
11001;BME280;5553;48.506;8.870;2022-08-19T10:06:30;96287.28;;;18.87;100.00
11001;BME280;5553;48.506;8.870;2022-08-19T10:08:59;96289.94;;;18.87;100.00
11001;BME280;5553;48.506;8.870;2022-08-19T10:11:32;96292.16;;;18.96;100.00
11001;BME280;5553;48.506;8.870;2022-08-19T10:14:02;96295.91;;;18.94;100.00
11001;BME280;5553;48.506;8.870;2022-08-19T10:16:31;96289.81;;;18.99;100.00
11001;BME280;5553;48.506;8.870;2022-08-19T10:18:59;96303.16;;;18.99;100.00
11001;BME280;5553;48.506;8.870;2022-08-19T10:21:30;96295.22;;;19.04;100.00
11001;BME280;5553;48.506;8.870;2022-08-19T10:24:00;96297.94;;;19.09;100.00
11001;BME280;5553;48.506;8.870;2022-08-19T10:26:35;96295.53;;;19.08;100.00
11001;BME280;5553;48.506;8.870;2022-08-19T10:29:07;96304.91;;;19.10;100.00
11001;BME280;5553;48.506;8.870;2022-08-19T10:31:37;96305.69;;;19.11;100.00
11001;BME280;5553;48.506;8.870;2022-08-19T10:34:05;96314.75;;;19.05;100.00
11001;BME280;5553;48.506;8.870;2022-08-19T10:36:36;96300.56;;;19.04;100.00
11001;BME280;5553;48.506;8.870;2022-08-19T10:39:07;96299.75;;;19.04;100.00
11001;BME280;5553;48.506;8.870;2022-08-19T10:41:40;96294.38;;;19.04;100.00
11001;BME280;5553;48.506;8.870;2022-08-19T10:51:13;96284.41;;;19.21;100.00
11001;BME280;5553;48.506;8.870;2022-08-19T10:53:54;96287.66;;;19.23;100.00
11001;BME280;5553;48.506;8.870;2022-08-19T10:56:23;96288.72;;;19.22;100.00
11001;BME280;5553;48.506;8.870;2022-08-19T10:59:07;96286.59;;;19.24;100.00
11001;BME280;5553;48.506;8.870;2022-08-19T11:01:36;96279.72;;;19.28;100.00
11001;BME280;5553;48.506;8.870;2022-08-19T11:04:05;96278.13;;;19.32;100.00
11001;BME280;5553;48.506;8.870;2022-08-19T11:06:35;96272.63;;;19.44;100.00
11001;BME280;5553;48.506;8.870;2022-08-19T11:09:06;96278.03;;;19.49;100.00
11001;BME280;5553;48.506;8.870;2022-08-19T11:11:36;96274.56;;;19.49;100.00
11001;BME280;5553;48.506;8.870;2022-08-19T11:14:09;96268.66;;;19.52;100.00
11001;BME280;5553;48.506;8.870;2022-08-19T11:16:39;96274.31;;;19.55;100.00
11001;BME280;5553;48.506;8.870;2022-08-19T11:19:10;96271.91;;;19.54;100.00
11001;BME280;5553;48.506;8.870;2022-08-19T11:21:43;96267.88;;;19.51;100.00
11001;BME280;5553;48.506;8.870;2022-08-19T11:24:15;96270.84;;;19.55;100.00
11001;BME280;5553;48.506;8.870;2022-08-19T11:26:45;96276.38;;;19.43;100.00
11001;BME280;5553;48.506;8.870;2022-08-19T11:29:18;96271.31;;;19.47;100.00
11001;BME280;5553;48.506;8.870;2022-08-19T11:31:48;96279.34;;;19.47;100.00
11001;BME280;5553;48.506;8.870;2022-08-19T11:34:20;96274.56;;;19.49;100.00
11001;BME280;5553;48.506;8.870;2022-08-19T11:36:50;96277.97;;;19.44;100.00
11001;BME280;5553;48.506;8.870;2022-08-19T11:39:21;96270.25;;;19.48;100.00
11001;BME280;5553;48.506;8.870;2022-08-19T11:41:50;96278.28;;;19.48;100.00
11001;BME280;5553;48.506;8.870;2022-08-19T11:44:20;96273.50;;;19.50;100.00
11001;BME280;5553;48.506;8.870;2022-08-19T11:46:49;96282.88;;;19.52;100.00
11001;BME280;5553;48.506;8.870;2022-08-19T11:49:18;96276.69;;;19.52;100.00
11001;BME280;5553;48.506;8.870;2022-08-19T11:51:48;96279.44;;;19.57;100.00
11001;BME280;5553;48.506;8.870;2022-08-19T11:54:17;96284.63;;;19.63;100.00
11001;BME280;5553;48.506;8.870;2022-08-19T11:56:45;96270.97;;;19.65;100.00
11001;BME280;5553;48.506;8.870;2022-08-19T11:59:14;96275.28;;;19.66;100.00
11001;BME280;5553;48.506;8.870;2022-08-19T12:01:45;96282.75;;;19.64;100.00
11001;BME280;5553;48.506;8.870;2022-08-19T12:04:13;96279.00;;;19.65;100.00
11001;BME280;5553;48.506;8.870;2022-08-19T12:06:42;96287.28;;;19.63;100.00
11001;BME280;5553;48.506;8.870;2022-08-19T12:09:10;96280.53;;;19.61;100.00
11001;BME280;5553;48.506;8.870;2022-08-19T12:11:39;96288.31;;;19.62;100.00
11001;BME280;5553;48.506;8.870;2022-08-19T12:14:10;96283.81;;;19.63;100.00
11001;BME280;5553;48.506;8.870;2022-08-19T12:16:39;96283.53;;;19.64;100.00
11001;BME280;5553;48.506;8.870;2022-08-19T12:19:10;96284.34;;;19.65;100.00
11001;BME280;5553;48.506;8.870;2022-08-19T12:21:39;96282.22;;;19.67;100.00
11001;BME280;5553;48.506;8.870;2022-08-19T12:24:08;96289.19;;;19.68;100.00
11001;BME280;5553;48.506;8.870;2022-08-19T12:26:36;96296.34;;;19.35;100.00
11001;BME280;5553;48.506;8.870;2022-08-19T12:29:04;96301.53;;;19.20;100.00
11001;BME280;5553;48.506;8.870;2022-08-19T12:31:33;96309.28;;;18.94;100.00
11001;BME280;5553;48.506;8.870;2022-08-19T12:34:02;96306.78;;;18.88;100.00
11001;BME280;5553;48.506;8.870;2022-08-19T12:36:33;96323.00;;;18.81;100.00
11001;BME280;5553;48.506;8.870;2022-08-19T12:39:01;96315.22;;;18.80;100.00
11001;BME280;5553;48.506;8.870;2022-08-19T12:41:30;96319.69;;;18.96;100.00
11001;BME280;5553;48.506;8.870;2022-08-19T12:43:59;96326.34;;;18.93;100.00
11001;BME280;5553;48.506;8.870;2022-08-19T12:46:27;96327.38;;;18.87;100.00
11001;BME280;5553;48.506;8.870;2022-08-19T12:48:56;96320.50;;;18.97;100.00
11001;BME280;5553;48.506;8.870;2022-08-19T12:51:25;96312.00;;;19.22;100.00
11001;BME280;5553;48.506;8.870;2022-08-19T12:53:56;96313.09;;;19.04;100.00
11001;BME280;5553;48.506;8.870;2022-08-19T12:56:24;96308.59;;;19.31;100.00
11001;BME280;5553;48.506;8.870;2022-08-19T12:58:52;96305.41;;;19.34;100.00
11001;BME280;5553;48.506;8.870;2022-08-19T13:01:21;96299.38;;;19.44;100.00
11001;BME280;5553;48.506;8.870;2022-08-19T13:03:50;96290.16;;;19.62;100.00
11001;BME280;5553;48.506;8.870;2022-08-19T13:06:19;96289.47;;;19.67;100.00
11001;BME280;5553;48.506;8.870;2022-08-19T13:08:48;96289.16;;;19.63;100.00
11001;BME280;5553;48.506;8.870;2022-08-19T13:11:20;96293.56;;;19.79;100.00
11001;BME280;5553;48.506;8.870;2022-08-19T13:13:51;96299.22;;;19.56;100.00
11001;BME280;5553;48.506;8.870;2022-08-19T13:16:20;96301.81;;;19.46;100.00
11001;BME280;5553;48.506;8.870;2022-08-19T13:18:49;96306.06;;;19.69;100.00
11001;BME280;5553;48.506;8.870;2022-08-19T13:21:20;96299.22;;;19.56;100.00
11001;BME280;5553;48.506;8.870;2022-08-19T13:23:49;96301.41;;;19.59;100.00